Flight Track Log - Related Links

Times and Time Zones

All times are in EDT time to prevent confusion due to time zone crossing. See the EMD28 flight status page for this flight to view local times or setup timezone preferences in your user account.

Time Position Orientation Groundspeed Altitude Reporting Facility
EDT Latitude Longitude Course Direction KTS MPH feet Rate Location/Type
Sun 06:15:07 PM 34.7339 -82.3275 133° Southeast 132 152 3,100  Level Atlanta Center
Sun 06:16:07 PM 34.7006 -82.3233 174° South 139 160 4,200 1,200 Climbing Atlanta Center
Sun 06:17:07 PM 34.6506 -82.3192 176° South 152 175 5,500 1,300 Climbing Atlanta Center
Sun 06:18:07 PM 34.6106 -82.3100 169° South 157 181 6,800 1,100 Climbing Atlanta Center
Sun 06:19:07 PM 34.5767 -82.2703 136° Southeast 157 181 7,700 1,000 Climbing Atlanta Center
Sun 06:20:00 PM 34.6109 -82.1853 133° Southeast  Level Estimated
Sun 06:20:07 PM 34.5367 -82.2358 145° Southeast 163 188 8,800  Level Atlanta Center
Sun 06:21:07 PM 34.5025 -82.1911 133° Southeast 175 201 9,900 1,150 Climbing Atlanta Center
Sun 06:22:07 PM 34.4706 -82.1464 131° Southeast 175 201 11,100 1,150 Climbing Atlanta Center
Sun 06:23:07 PM 34.4386 -82.1019 131° Southeast 175 201 12,200 900 Climbing Atlanta Center
Sun 06:24:07 PM 34.4064 -82.0522 128° Southeast 181 208 12,900 350 Climbing Atlanta Center
Sun 06:25:07 PM 34.3658 -82.0031 135° Southeast 195 224 12,900  Level Atlanta Center
Sun 06:26:07 PM 34.3231 -81.9411 130° Southeast 211 243 12,900  Level Atlanta Center
Sun 06:27:07 PM 34.2803 -81.8817 131° Southeast 223 257 12,900 36 Level Atlanta Center
Sun 06:28:54 PM 34.2028 -81.7753 131° Southeast 237 273 13,000  Climbing Jacksonville Center
Sun 06:29:54 PM 34.1586 -81.7131 131° Southeast 237 273 12,900  Descending Jacksonville Center
Sun 06:30:54 PM 34.1183 -81.6558 130° Southeast 237 273 13,000 50 Climbing Jacksonville Center
Sun 06:31:54 PM 34.0717 -81.5964 133° Southeast 237 273 13,000  Level Jacksonville Center
Sun 06:32:54 PM 34.0272 -81.5369 132° Southeast 237 273 13,000  Level Jacksonville Center
Sun 06:33:54 PM 33.9828 -81.4800 133° Southeast 237 273 13,000  Level Jacksonville Center
Sun 06:34:54 PM 33.9406 -81.4256 133° Southeast 237 273 13,000  Level Jacksonville Center
Sun 06:35:54 PM 33.8981 -81.3639 130° Southeast 237 273 13,000  Level Jacksonville Center
Sun 06:36:54 PM 33.8536 -81.3044 132° Southeast 237 273 13,000  Level Jacksonville Center
Sun 06:37:55 PM 33.8111 -81.2453 131° Southeast 237 273 13,000  Level Jacksonville Center
Sun 06:38:54 PM 33.7644 -81.1864 134° Southeast 242 278 13,000  Level Jacksonville Center
Sun 06:39:54 PM 33.7281 -81.1344 130° Southeast 237 273 13,000  Level Jacksonville Center
Sun 06:40:54 PM 33.6836 -81.0756 132° Southeast 237 273 13,000  Level Jacksonville Center
Sun 06:41:55 PM 33.6408 -81.0167 131° Southeast 237 273 13,000 -446 Level Jacksonville Center
Sun 06:42:55 PM 33.5942 -80.9553 132° Southeast 237 273 12,100 -950 Descending Jacksonville Center
Sun 06:43:55 PM 33.5472 -80.8914 131° Southeast 242 278 11,100 -555 Descending Jacksonville Center
Sun 06:44:54 PM 33.5003 -80.8303 133° Southeast 242 278 11,000 -655 Descending Jacksonville Center
Sun 06:45:54 PM 33.4556 -80.7689 131° Southeast 242 278 9,800 -1,438 Descending Jacksonville Center
Sun 06:46:55 PM 33.4086 -80.7081 133° Southeast 242 278 8,100 -1,650 Descending Jacksonville Center
Sun 06:47:54 PM 33.3614 -80.6469 133° Southeast 242 278 6,500 -1,563 Descending Jacksonville Center
Sun 06:48:54 PM 33.3167 -80.5858 131° Southeast 242 278 5,000 -800 Descending Jacksonville Center
Sun 06:49:54 PM 33.2758 -80.5322 132° Southeast 232 267 4,900 -300 Descending Jacksonville Center
Sun 06:50:54 PM 33.2353 -80.4811 133° Southeast 226 260 4,400 -900 Descending Jacksonville Center
Sun 06:51:54 PM 33.1903 -80.4203 131° Southeast 226 260 3,100 -1,250 Descending Jacksonville Center
Sun 06:52:54 PM 33.1475 -80.3644 132° Southeast 233 268 1,900 -800 Descending Jacksonville Center
Sun 06:53:54 PM 33.1067 -80.3111 132° Southeast 233 268 1,500 -149 Descending Jacksonville Center
Sun 06:54:55 PM 33.0681 -80.2603 132° Southeast 221 254 1,600  Climbing Jacksonville Center
Sun 06:55:54 PM 33.0272 -80.2069 132° Southeast 209 241 1,500 -67 Descending Jacksonville Center
Sun 06:57:00 PM 32.9856 -80.1475 132° Southeast  Level FlightAware Approximate
Sun 06:57:55 PM 32.9769 -80.0969 140° Southeast 192 221 1,400  Level Jacksonville Center
Sun 06:58:55 PM 32.9553 -80.0606 125° Southeast 161 185 1,200 -250 Descending Jacksonville Center
Sun 06:59:55 PM 32.9314 -80.0267 130° Southeast 144 166 900 -403 Descending Jacksonville Center
Sun 07:00:54 PM 32.9022 -80.0275 181° South 108 124 400 2,067 Descending Jacksonville Center
Sun 07:01:54 PM 32.8769 -80.0158 140° Southeast 108 124 5,000 4,600 Climbing Jacksonville Center
Sun 07:02:00 PM 32.8986 -80.0405 140° Southeast  Level Estimated
Sun 07:04:00 PM 32.8986 -80.0405 140° Southeast  Level Estimated
Sun 07:09:00 PM 32.8986 -80.0405 140° Southeast  Level Estimated

Login

Don't have an account? Register now (free) for customized features, flight alerts, and more!